createdAt,value
2016-05-24T00:00:34.545Z,84
2016-05-24T00:01:34.812Z,84
2016-05-24T00:02:34.551Z,84
2016-05-24T00:03:34.568Z,84
2016-05-24T00:04:34.587Z,84
2016-05-24T00:05:34.573Z,84
2016-05-24T00:06:34.592Z,84
2016-05-24T00:07:34.609Z,84
2016-05-24T00:08:34.597Z,84
2016-05-24T00:09:34.600Z,84
2016-05-24T00:10:34.603Z,84
2016-05-24T00:11:34.620Z,84
2016-05-24T00:12:34.608Z,84
2016-05-24T00:13:34.626Z,84
2016-05-24T00:14:34.660Z,84
2016-05-24T00:15:34.647Z,84
2016-05-24T00:16:34.634Z,84
2016-05-24T00:17:34.669Z,84
2016-05-24T00:18:34.655Z,84
2016-05-24T00:19:34.674Z,84
2016-05-24T00:20:34.677Z,84
2016-05-24T00:21:34.680Z,84
2016-05-24T00:22:34.682Z,84
2016-05-24T00:23:34.685Z,84
2016-05-24T00:24:34.702Z,84
2016-05-24T00:25:34.705Z,84
2016-05-24T00:26:34.395Z,84
2016-05-24T00:27:34.399Z,84
2016-05-24T00:28:34.713Z,84
2016-05-24T00:29:34.716Z,80
2016-05-24T00:30:34.734Z,0
2016-05-24T00:31:34.566Z,0
2016-05-24T00:32:50.381Z,0
2016-05-24T00:33:34.602Z,0
2016-05-24T00:34:34.745Z,0
2016-05-24T00:35:34.795Z,0
2016-05-24T00:36:34.766Z,0
2016-05-24T00:37:34.769Z,0
2016-05-24T00:38:34.772Z,0
2016-05-24T00:39:34.775Z,0
2016-05-24T00:40:34.793Z,0
2016-05-24T00:41:34.811Z,0
2016-05-24T00:42:34.798Z,0
2016-05-24T00:43:34.831Z,0
2016-05-24T00:44:35.022Z,0
2016-05-24T00:45:34.822Z,0
2016-05-24T00:46:34.669Z,0
2016-05-24T00:47:34.686Z,0
2016-05-24T00:48:34.861Z,0
2016-05-24T00:49:34.864Z,0
2016-05-24T00:50:34.851Z,0
2016-05-24T00:51:34.853Z,0
2016-05-24T00:52:34.872Z,0
2016-05-24T00:53:34.874Z,0
2016-05-24T00:54:34.893Z,0
2016-05-24T00:55:34.724Z,0
2016-05-24T00:56:34.899Z,0
2016-05-24T00:57:34.885Z,0
2016-05-24T00:58:34.919Z,0
2016-05-24T00:59:35.421Z,0
2016-05-24T01:00:34.920Z,0
2016-05-24T01:01:34.810Z,0
2016-05-24T01:02:34.841Z,0
2016-05-24T01:03:34.889Z,0
2016-05-24T01:04:35.059Z,0
2016-05-24T01:05:35.115Z,0
2016-05-24T01:06:34.956Z,0
2016-05-24T01:07:35.124Z,0
2016-05-24T01:08:35.169Z,0
2016-05-24T01:09:34.995Z,0
2016-05-24T01:10:35.177Z,0
2016-05-24T01:11:35.183Z,0
2016-05-24T01:12:35.033Z,0
2016-05-24T01:13:35.196Z,0
2016-05-24T01:14:35.515Z,0
2016-05-24T01:15:35.068Z,0
2016-05-24T01:16:35.227Z,0
2016-05-24T01:17:35.247Z,0
2016-05-24T01:18:35.079Z,0
2016-05-24T01:19:35.254Z,0
2016-05-24T01:20:35.258Z,0
2016-05-24T01:21:35.106Z,0
2016-05-24T01:22:35.295Z,0
2016-05-24T01:23:35.283Z,0
2016-05-24T01:24:35.145Z,0
2016-05-24T01:25:35.289Z,0
2016-05-24T01:26:35.291Z,0
2016-05-24T01:27:35.155Z,0
2016-05-24T01:28:35.360Z,0
2016-05-24T01:29:35.520Z,0
2016-05-24T01:30:35.319Z,0
2016-05-24T01:31:35.323Z,0
2016-05-24T01:32:35.357Z,0
2016-05-24T01:33:35.344Z,0
2016-05-24T01:34:35.346Z,0
2016-05-24T01:35:35.349Z,0
2016-05-24T01:36:35.351Z,0
2016-05-24T01:37:35.370Z,0
2016-05-24T01:38:35.217Z,0
2016-05-24T01:39:35.219Z,0
2016-05-24T01:40:35.394Z,0
2016-05-24T01:41:35.380Z,0
2016-05-24T01:42:35.399Z,0
2016-05-24T01:43:35.292Z,0
2016-05-24T01:44:35.452Z,0
2016-05-24T01:45:35.298Z,0
2016-05-24T01:46:35.441Z,0
2016-05-24T01:47:35.271Z,0
2016-05-24T01:48:35.290Z,0
2016-05-24T01:49:35.277Z,0
2016-05-24T01:50:35.452Z,0
2016-05-24T01:51:35.470Z,0
2016-05-24T01:52:35.332Z,0
2016-05-24T01:53:35.319Z,0
2016-05-24T01:54:35.322Z,0
2016-05-24T01:55:35.465Z,0
2016-05-24T01:56:35.328Z,0
2016-05-24T01:57:35.486Z,0
2016-05-24T01:58:35.551Z,0
2016-05-24T01:59:35.601Z,0
2016-05-24T02:00:35.526Z,0
2016-05-24T02:01:35.512Z,0
2016-05-24T02:02:35.531Z,0
2016-05-24T02:03:35.517Z,0
2016-05-24T02:04:35.536Z,0
2016-05-24T02:05:35.538Z,0
2016-05-24T02:06:35.401Z,0
2016-05-24T02:07:35.561Z,0
2016-05-24T02:08:35.547Z,0
2016-05-24T02:09:35.580Z,0
2016-05-24T02:10:35.583Z,0
2016-05-24T02:11:35.586Z,0
2016-05-24T02:12:35.589Z,0
2016-05-24T02:13:35.592Z,0
2016-05-24T02:14:35.610Z,0
2016-05-24T02:15:35.629Z,0
2016-05-24T02:16:35.615Z,0
2016-05-24T02:17:35.618Z,0
2016-05-24T02:18:35.621Z,0
2016-05-24T02:19:35.623Z,0
2016-05-24T02:20:35.643Z,0
2016-05-24T02:21:35.504Z,0
2016-05-24T02:22:35.647Z,0
2016-05-24T02:23:35.650Z,0
2016-05-24T02:24:35.668Z,0
2016-05-24T02:25:35.671Z,0
2016-05-24T02:26:35.689Z,0
2016-05-24T02:27:35.676Z,0
2016-05-24T02:28:35.523Z,0
2016-05-24T02:29:35.698Z,0
2016-05-24T02:30:35.700Z,0
2016-05-24T02:31:35.718Z,0
2016-05-24T02:32:35.720Z,0
2016-05-24T02:33:35.583Z,0
2016-05-24T02:34:35.725Z,0
2016-05-24T02:35:35.745Z,0
2016-05-24T02:36:35.435Z,0
2016-05-24T02:37:35.750Z,0
2016-05-24T02:38:35.752Z,0
2016-05-24T02:39:35.755Z,0
2016-05-24T02:40:35.758Z,0
2016-05-24T02:41:35.605Z,0
2016-05-24T02:42:35.780Z,0
2016-05-24T02:43:35.797Z,0
2016-05-24T02:44:35.799Z,0
2016-05-24T02:45:35.709Z,0
2016-05-24T02:46:35.649Z,0
2016-05-24T02:47:35.699Z,0
2016-05-24T02:48:35.718Z,0
2016-05-24T02:49:35.720Z,0
2016-05-24T02:50:35.879Z,0
2016-05-24T02:51:35.521Z,0
2016-05-24T02:52:35.681Z,0
2016-05-24T02:53:35.731Z,0
2016-05-24T02:54:35.999Z,0
2016-05-24T02:55:35.861Z,0
2016-05-24T02:56:35.707Z,0
2016-05-24T02:57:35.867Z,0
2016-05-24T02:58:35.885Z,0
2016-05-24T02:59:35.903Z,0
2016-05-24T03:00:35.875Z,0
2016-05-24T03:01:35.892Z,0
2016-05-24T03:02:35.739Z,0
2016-05-24T03:03:35.898Z,0
2016-05-24T03:04:35.917Z,0
2016-05-24T03:05:35.934Z,0
2016-05-24T03:06:35.937Z,0
2016-05-24T03:07:35.784Z,0
2016-05-24T03:08:35.942Z,0
2016-05-24T03:09:35.945Z,0
2016-05-24T03:10:35.964Z,0
2016-05-24T03:11:35.950Z,0
2016-05-24T03:12:35.969Z,0
2016-05-24T03:13:35.971Z,0
2016-05-24T03:14:35.833Z,0
2016-05-24T03:15:35.977Z,0
2016-05-24T03:16:35.996Z,0
2016-05-24T03:17:35.983Z,0
2016-05-24T03:18:36.016Z,0
2016-05-24T03:19:36.018Z,0
2016-05-24T03:20:36.006Z,0
2016-05-24T03:21:35.712Z,0
2016-05-24T03:22:36.043Z,4
2016-05-24T03:23:36.030Z,4
2016-05-24T03:24:35.892Z,4
2016-05-24T03:25:35.895Z,4
2016-05-24T03:26:36.054Z,4
2016-05-24T03:27:36.056Z,4
2016-05-24T03:28:35.746Z,4
2016-05-24T03:29:36.078Z,4
2016-05-24T03:30:36.111Z,4
2016-05-24T03:31:35.770Z,4
2016-05-24T03:32:36.086Z,4
2016-05-24T03:33:36.088Z,4
2016-05-24T03:34:36.091Z,4
2016-05-24T03:35:36.094Z,4
2016-05-24T03:36:36.111Z,8
2016-05-24T03:37:35.990Z,4
2016-05-24T03:38:36.133Z,8
2016-05-24T03:39:36.136Z,8
2016-05-24T03:40:35.982Z,8
2016-05-24T03:41:36.141Z,4
2016-05-24T03:42:36.143Z,8
2016-05-24T03:43:36.178Z,12
2016-05-24T03:44:36.305Z,8
2016-05-24T03:45:36.042Z,8
2016-05-24T03:46:36.201Z,8
2016-05-24T03:47:36.016Z,8
2016-05-24T03:48:36.034Z,8
2016-05-24T03:49:36.194Z,12
2016-05-24T03:50:36.040Z,12
2016-05-24T03:51:35.902Z,12
2016-05-24T03:52:36.060Z,16
2016-05-24T03:53:36.205Z,12
2016-05-24T03:54:36.223Z,12
2016-05-24T03:55:36.101Z,12
2016-05-24T03:56:36.243Z,8
2016-05-24T03:57:36.246Z,8
2016-05-24T03:58:36.265Z,12
2016-05-24T03:59:36.408Z,16
2016-05-24T04:00:35.989Z,12
2016-05-24T04:01:36.289Z,12
2016-05-24T04:02:36.119Z,16
2016-05-24T04:03:36.294Z,16
2016-05-24T04:04:36.281Z,24
2016-05-24T04:05:36.300Z,20
2016-05-24T04:06:36.161Z,20
2016-05-24T04:07:36.320Z,20
2016-05-24T04:08:36.307Z,20
2016-05-24T04:09:36.325Z,20
2016-05-24T04:10:36.172Z,24
2016-05-24T04:11:36.034Z,20
2016-05-24T04:12:36.333Z,24
2016-05-24T04:13:36.180Z,24
2016-05-24T04:14:36.198Z,28
2016-05-24T04:15:36.076Z,24
2016-05-24T04:16:36.361Z,24
2016-05-24T04:17:36.207Z,24
2016-05-24T04:18:36.210Z,28
2016-05-24T04:19:36.383Z,32
2016-05-24T04:20:36.229Z,36
2016-05-24T04:21:36.389Z,36
2016-05-24T04:22:36.391Z,36
2016-05-24T04:23:36.394Z,40
2016-05-24T04:24:36.694Z,44
2016-05-24T04:25:36.415Z,48
2016-05-24T04:26:36.418Z,40
2016-05-24T04:27:36.420Z,40
2016-05-24T04:28:36.283Z,36
2016-05-24T04:29:36.285Z,40
2016-05-24T04:30:36.460Z,40
2016-05-24T04:31:36.290Z,40
2016-05-24T04:33:04.653Z,36
2016-05-24T04:33:36.453Z,44
2016-05-24T04:34:36.456Z,40
2016-05-24T04:35:36.473Z,40
2016-05-24T04:36:36.164Z,44
2016-05-24T04:37:36.478Z,52
2016-05-24T04:38:36.497Z,60
2016-05-24T04:39:36.500Z,60
2016-05-24T04:40:36.503Z,68
2016-05-24T04:41:36.349Z,68
2016-05-24T04:42:36.508Z,76
2016-05-24T04:43:36.510Z,84
2016-05-24T04:44:36.530Z,88
2016-05-24T04:45:37.157Z,92
2016-05-24T04:46:36.394Z,100
2016-05-24T04:47:36.380Z,104
2016-05-24T04:48:36.555Z,112
2016-05-24T04:49:36.573Z,124
2016-05-24T04:50:36.561Z,124
2016-05-24T04:51:36.580Z,120
2016-05-24T04:52:36.410Z,100
2016-05-24T04:53:36.428Z,100
2016-05-24T04:54:36.274Z,92
2016-05-24T04:55:36.590Z,84
2016-05-24T04:56:36.608Z,84
2016-05-24T04:57:36.455Z,80
2016-05-24T04:58:36.613Z,96
2016-05-24T04:59:36.475Z,108
2016-05-24T05:00:36.463Z,116
2016-05-24T05:01:36.637Z,128
2016-05-24T05:02:36.484Z,132
2016-05-24T05:03:36.643Z,136
2016-05-24T05:04:36.645Z,128
2016-05-24T05:05:36.648Z,116
2016-05-24T05:06:36.666Z,116
2016-05-24T05:07:36.669Z,136
2016-05-24T05:08:36.515Z,156
2016-05-24T05:09:36.675Z,176
2016-05-24T05:10:36.380Z,184
2016-05-24T05:11:36.680Z,164
2016-05-24T05:12:36.698Z,156
2016-05-24T05:13:36.717Z,148
2016-05-24T05:14:36.703Z,140
2016-05-24T05:15:36.409Z,132
2016-05-24T05:16:36.724Z,116
2016-05-24T05:17:36.555Z,100
2016-05-24T05:18:36.574Z,96
2016-05-24T05:19:36.749Z,92
2016-05-24T05:20:36.766Z,100
2016-05-24T05:21:36.597Z,100
2016-05-24T05:22:36.757Z,88
2016-05-24T05:23:36.760Z,92
2016-05-24T05:24:36.761Z,96
2016-05-24T05:25:36.780Z,104
2016-05-24T05:26:36.783Z,96
2016-05-24T05:27:36.785Z,92
2016-05-24T05:28:36.803Z,84
2016-05-24T05:29:36.790Z,76
2016-05-24T05:30:36.934Z,76
2016-05-24T05:31:36.812Z,80
2016-05-24T05:32:36.814Z,80
2016-05-24T05:33:36.818Z,84
2016-05-24T05:34:36.835Z,96
2016-05-24T05:35:36.837Z,124
2016-05-24T05:36:36.841Z,148
2016-05-24T05:37:36.859Z,148
2016-05-24T05:38:36.861Z,144
2016-05-24T05:39:36.864Z,152
2016-05-24T05:40:36.867Z,188
2016-05-24T05:41:36.714Z,228
2016-05-24T05:42:36.888Z,208
2016-05-24T05:43:36.719Z,176
2016-05-24T05:44:36.909Z,168
2016-05-24T05:45:36.739Z,164
2016-05-24T05:46:36.899Z,164
2016-05-24T05:47:36.901Z,168
2016-05-24T05:48:36.904Z,160
2016-05-24T05:49:36.923Z,160
2016-05-24T05:50:36.910Z,160
2016-05-24T05:51:36.928Z,164
2016-05-24T05:52:36.946Z,168
2016-05-24T05:53:36.933Z,168
2016-05-24T05:54:36.998Z,164
2016-05-24T05:55:36.954Z,160
2016-05-24T05:56:36.801Z,160
2016-05-24T05:57:36.991Z,164
2016-05-24T05:58:36.978Z,184
2016-05-24T05:59:36.981Z,196
2016-05-24T06:00:37.249Z,216
2016-05-24T06:01:36.986Z,236
2016-05-24T06:02:37.020Z,252
2016-05-24T06:03:37.006Z,296
2016-05-24T06:04:36.854Z,312
2016-05-24T06:05:37.012Z,320
2016-05-24T06:06:37.015Z,340
2016-05-24T06:07:37.033Z,332
2016-05-24T06:08:37.036Z,376
2016-05-24T06:09:36.725Z,340
2016-05-24T06:10:37.072Z,384
2016-05-24T06:11:38.342Z,376
2016-05-24T06:12:37.062Z,380
2016-05-24T06:13:37.064Z,356
2016-05-24T06:14:37.459Z,328
2016-05-24T06:15:37.649Z,312
2016-05-24T06:16:36.869Z,308
2016-05-24T06:17:37.575Z,300
2016-05-24T06:18:37.110Z,312
2016-05-24T06:19:37.097Z,332
2016-05-24T06:20:37.116Z,344
2016-05-24T06:21:37.102Z,348
2016-05-24T06:22:36.824Z,376
2016-05-24T06:23:37.123Z,388
2016-05-24T06:24:36.969Z,404
2016-05-24T06:25:37.144Z,396
2016-05-24T06:26:37.147Z,412
2016-05-24T06:27:37.149Z,424
2016-05-24T06:28:37.152Z,404
2016-05-24T06:29:37.015Z,404
2016-05-24T06:30:37.407Z,376
2016-05-24T06:31:37.176Z,392
2016-05-24T06:32:37.195Z,368
2016-05-24T06:33:37.182Z,364
2016-05-24T06:34:37.043Z,356
2016-05-24T06:35:37.203Z,344
2016-05-24T06:36:37.190Z,352
2016-05-24T06:37:37.083Z,356
2016-05-24T06:38:37.211Z,336
2016-05-24T06:39:37.214Z,316
2016-05-24T06:40:37.076Z,332
2016-05-24T06:41:37.094Z,332
2016-05-24T06:42:36.939Z,320
2016-05-24T06:43:37.255Z,296
2016-05-24T06:44:37.273Z,288
2016-05-24T06:45:37.308Z,272
2016-05-24T06:46:37.279Z,276
2016-05-24T06:47:37.266Z,272
2016-05-24T06:48:37.128Z,268
2016-05-24T06:49:37.131Z,280
2016-05-24T06:50:37.290Z,284
2016-05-24T06:51:37.152Z,284
2016-05-24T06:52:36.999Z,284
2016-05-24T06:53:37.313Z,296
2016-05-24T06:54:37.394Z,316
2016-05-24T06:55:37.335Z,320
2016-05-24T06:56:37.352Z,356
2016-05-24T06:57:37.480Z,356
2016-05-24T06:58:37.218Z,348
2016-05-24T06:59:37.346Z,336
2016-05-24T07:00:37.208Z,352
2016-05-24T07:01:37.351Z,372
2016-05-24T07:02:37.229Z,360
2016-05-24T07:03:37.371Z,348
2016-05-24T07:04:37.374Z,364
2016-05-24T07:05:37.393Z,376
2016-05-24T07:06:37.395Z,392
2016-05-24T07:07:37.414Z,432
2016-05-24T07:08:37.432Z,452
2016-05-24T07:09:37.404Z,444
2016-05-24T07:10:37.265Z,424
2016-05-24T07:11:37.300Z,428
2016-05-24T07:12:37.428Z,408
2016-05-24T07:13:37.431Z,424
2016-05-24T07:14:37.433Z,384
2016-05-24T07:15:37.310Z,376
2016-05-24T07:16:37.297Z,356
2016-05-24T07:17:37.456Z,360
2016-05-24T07:18:37.458Z,380
2016-05-24T07:19:37.321Z,400
2016-05-24T07:20:37.324Z,384
2016-05-24T07:21:37.483Z,356
2016-05-24T07:22:37.500Z,372
2016-05-24T07:23:37.347Z,356
2016-05-24T07:24:37.631Z,348
2016-05-24T07:25:37.525Z,352
2016-05-24T07:26:37.590Z,352
2016-05-24T07:27:37.358Z,372
2016-05-24T07:28:37.533Z,388
2016-05-24T07:29:37.598Z,380
2016-05-24T07:30:37.616Z,380
2016-05-24T07:31:37.399Z,360
2016-05-24T07:32:37.621Z,364
2016-05-24T07:33:37.546Z,380
2016-05-24T07:34:37.565Z,400
2016-05-24T07:35:37.582Z,432
2016-05-24T07:36:37.570Z,448
2016-05-24T07:37:37.588Z,460
2016-05-24T07:38:37.435Z,432
2016-05-24T07:39:37.593Z,416
2016-05-24T07:40:37.456Z,420
2016-05-24T07:41:37.723Z,444
2016-05-24T07:42:37.664Z,448
2016-05-24T07:43:37.636Z,468
2016-05-24T07:44:37.466Z,420
2016-05-24T07:45:38.048Z,428
2016-05-24T07:46:37.378Z,392
2016-05-24T07:47:37.708Z,376
2016-05-24T07:48:37.681Z,428
2016-05-24T07:49:37.652Z,452
2016-05-24T07:50:37.670Z,500
2016-05-24T07:51:37.673Z,512
2016-05-24T07:52:37.691Z,536
2016-05-24T07:53:37.819Z,620
2016-05-24T07:54:37.696Z,648
2016-05-24T07:55:37.621Z,712
2016-05-24T07:56:37.702Z,736
2016-05-24T07:57:37.720Z,748
2016-05-24T07:58:37.722Z,704
2016-05-24T07:59:37.679Z,616
2016-05-24T08:00:38.415Z,536
2016-05-24T08:01:37.762Z,512
2016-05-24T08:02:37.827Z,476
2016-05-24T08:03:37.752Z,448
2016-05-24T08:04:37.755Z,376
2016-05-24T08:05:37.616Z,344
2016-05-24T08:06:37.776Z,332
2016-05-24T08:07:37.793Z,320
2016-05-24T08:08:37.640Z,312
2016-05-24T08:09:37.643Z,328
2016-05-24T08:10:37.802Z,332
2016-05-24T08:11:37.820Z,316
2016-05-24T08:12:37.932Z,308
2016-05-24T08:13:37.810Z,308
2016-05-24T08:14:37.953Z,316
2016-05-24T08:15:37.862Z,340
2016-05-24T08:16:37.678Z,400
2016-05-24T08:17:37.540Z,444
2016-05-24T08:18:37.855Z,504
2016-05-24T08:19:37.872Z,600
2016-05-24T08:20:37.891Z,668
2016-05-24T08:21:37.879Z,784
2016-05-24T08:22:37.928Z,812
2016-05-24T08:23:37.900Z,792
2016-05-24T08:24:37.747Z,704
2016-05-24T08:25:37.952Z,732
2016-05-24T08:26:37.985Z,676
2016-05-24T08:27:38.004Z,640
2016-05-24T08:28:37.928Z,632
2016-05-24T08:29:38.041Z,564
2016-05-24T08:30:41.387Z,556
2016-05-24T08:31:37.936Z,528
2016-05-24T08:32:37.939Z,528
2016-05-24T08:33:37.910Z,564
2016-05-24T08:34:37.960Z,508
2016-05-24T08:35:38.041Z,468
2016-05-24T08:36:37.997Z,412
2016-05-24T08:37:37.984Z,352
2016-05-24T08:38:37.987Z,320
2016-05-24T08:39:38.004Z,308
2016-05-24T08:40:37.867Z,316
2016-05-24T08:41:37.870Z,328
2016-05-24T08:42:38.029Z,372
2016-05-24T08:43:37.876Z,396
2016-05-24T08:44:37.893Z,436
2016-05-24T08:45:38.224Z,460
2016-05-24T08:46:38.055Z,460
2016-05-24T08:47:38.151Z,440
2016-05-24T08:48:37.919Z,508
2016-05-24T08:49:38.063Z,484
2016-05-24T08:50:37.926Z,488
2016-05-24T08:51:37.928Z,504
2016-05-24T08:52:38.180Z,484
2016-05-24T08:53:38.105Z,476
2016-05-24T08:54:37.952Z,500
2016-05-24T08:55:37.969Z,576
2016-05-24T08:56:37.973Z,600
2016-05-24T08:57:38.006Z,600
2016-05-24T08:58:37.978Z,584
2016-05-24T08:59:38.136Z,624
2016-05-24T09:00:38.468Z,628
2016-05-24T09:01:38.158Z,556
2016-05-24T09:02:38.160Z,576
2016-05-24T09:03:38.180Z,544
2016-05-24T09:04:38.072Z,636
2016-05-24T09:05:38.215Z,672
2016-05-24T09:06:38.280Z,700
2016-05-24T09:07:38.205Z,704
2016-05-24T09:08:38.208Z,648
2016-05-24T09:09:38.210Z,616
2016-05-24T09:10:38.182Z,596
2016-05-24T09:11:38.216Z,576
2016-05-24T09:12:38.219Z,600
2016-05-24T09:13:38.237Z,596
2016-05-24T09:14:38.240Z,604
2016-05-24T09:15:38.102Z,628
2016-05-24T09:16:38.261Z,552
2016-05-24T09:17:38.342Z,536
2016-05-24T09:18:38.281Z,552
2016-05-24T09:19:38.128Z,528
2016-05-24T09:20:38.272Z,492
2016-05-24T09:21:38.290Z,516
2016-05-24T09:22:38.136Z,552
2016-05-24T09:23:38.389Z,596
2016-05-24T09:24:38.158Z,600
2016-05-24T09:25:38.473Z,648
2016-05-24T09:26:38.194Z,652
2016-05-24T09:27:38.336Z,632
2016-05-24T09:28:38.184Z,620
2016-05-24T09:29:38.030Z,624
2016-05-24T09:30:38.470Z,652
2016-05-24T09:31:38.458Z,672
2016-05-24T09:32:38.475Z,712
2016-05-24T09:33:38.385Z,728
2016-05-24T09:34:38.466Z,672
2016-05-24T09:35:38.483Z,656
2016-05-24T09:36:38.392Z,664
2016-05-24T09:37:38.489Z,688
2016-05-24T09:38:38.413Z,644
2016-05-24T09:39:38.416Z,628
2016-05-24T09:40:38.435Z,612
2016-05-24T09:41:38.453Z,568
2016-05-24T09:42:38.440Z,568
2016-05-24T09:43:38.443Z,528
2016-05-24T09:44:38.445Z,520
2016-05-24T09:45:43.526Z,484
2016-05-24T09:46:39.028Z,500
2016-05-24T09:47:38.485Z,536
2016-05-24T09:48:38.519Z,604
2016-05-24T09:49:38.489Z,640
2016-05-24T09:50:38.493Z,696
2016-05-24T09:51:38.589Z,736
2016-05-24T09:52:38.358Z,776
2016-05-24T09:53:38.361Z,820
2016-05-24T09:54:38.519Z,868
2016-05-24T09:55:38.553Z,892
2016-05-24T09:56:38.447Z,996
2016-05-24T09:57:38.386Z,1084
2016-05-24T09:58:38.405Z,1144
2016-05-24T09:59:38.548Z,1232
2016-05-24T10:00:38.551Z,1368
2016-05-24T10:01:38.678Z,1536
2016-05-24T10:02:38.744Z,1680
2016-05-24T10:03:38.434Z,1772
2016-05-24T10:04:38.608Z,1808
2016-05-24T10:05:38.454Z,1832
2016-05-24T10:06:38.627Z,1692
2016-05-24T10:07:38.496Z,1360
2016-05-24T10:08:38.458Z,1084
2016-05-24T10:09:38.561Z,848
2016-05-24T10:10:38.726Z,660
2016-05-24T10:11:38.788Z,564
2016-05-24T10:12:38.784Z,504
2016-05-24T10:13:38.779Z,468
2016-05-24T10:14:41.273Z,452
2016-05-24T10:15:39.254Z,444
2016-05-24T10:16:38.667Z,440
2016-05-24T10:17:38.923Z,444
2016-05-24T10:18:38.850Z,464
2016-05-24T10:19:38.855Z,460
2016-05-24T10:20:38.783Z,460
2016-05-24T10:21:40.990Z,492
2016-05-24T10:22:38.729Z,508
2016-05-24T10:23:38.904Z,536
2016-05-24T10:24:38.907Z,560
2016-05-24T10:25:38.599Z,572
2016-05-24T10:26:41.165Z,572
2016-05-24T10:27:38.872Z,552
2016-05-24T10:28:38.937Z,556
2016-05-24T10:29:38.862Z,576
2016-05-24T10:30:39.099Z,604
2016-05-24T10:31:38.649Z,640
2016-05-24T10:32:38.965Z,668
2016-05-24T10:33:38.826Z,736
2016-05-24T10:34:38.673Z,708
2016-05-24T10:35:38.831Z,692
2016-05-24T10:36:38.834Z,768
2016-05-24T10:37:39.009Z,800
2016-05-24T10:38:38.996Z,732
2016-05-24T10:39:39.014Z,596
2016-05-24T10:40:39.095Z,504
2016-05-24T10:41:39.020Z,480
2016-05-24T10:42:39.084Z,472
2016-05-24T10:43:39.150Z,456
2016-05-24T10:44:39.059Z,452
2016-05-24T10:45:38.749Z,416
2016-05-24T10:46:38.892Z,376
2016-05-24T10:47:38.911Z,352
2016-05-24T10:48:39.070Z,340
2016-05-24T10:49:38.900Z,348
2016-05-24T10:50:39.106Z,360
2016-05-24T10:51:39.094Z,376
2016-05-24T10:52:39.096Z,388
2016-05-24T10:53:39.114Z,388
2016-05-24T10:54:38.960Z,372
2016-05-24T10:55:39.119Z,360
2016-05-24T10:56:39.122Z,344
2016-05-24T10:57:39.141Z,336
2016-05-24T10:58:38.987Z,332
2016-05-24T10:59:38.834Z,340
2016-05-24T11:00:39.273Z,344
2016-05-24T11:01:39.168Z,344
2016-05-24T11:02:38.873Z,340
2016-05-24T11:03:39.173Z,356
2016-05-24T11:04:39.254Z,388
2016-05-24T11:05:38.881Z,420
2016-05-24T11:06:39.056Z,456
2016-05-24T11:07:39.090Z,472
2016-05-24T11:08:39.233Z,492
2016-05-24T11:09:39.220Z,504
2016-05-24T11:10:39.317Z,548
2016-05-24T11:11:39.084Z,564
2016-05-24T11:12:39.306Z,604
2016-05-24T11:13:39.261Z,632
2016-05-24T11:14:39.265Z,656
2016-05-24T11:15:39.392Z,704
2016-05-24T11:16:39.269Z,788
2016-05-24T11:17:39.289Z,872
2016-05-24T11:18:39.119Z,932
2016-05-24T11:19:39.138Z,1008
2016-05-24T11:20:39.312Z,1088
2016-05-24T11:21:39.205Z,1180
2016-05-24T11:22:39.349Z,1276
2016-05-24T11:23:39.164Z,1396
2016-05-24T11:24:39.385Z,1412
2016-05-24T11:25:39.185Z,1344
2016-05-24T11:26:39.344Z,1200
2016-05-24T11:27:39.377Z,1000
2016-05-24T11:28:39.302Z,916
2016-05-24T11:29:39.352Z,840
2016-05-24T11:30:39.480Z,788
2016-05-24T11:31:39.388Z,752
2016-05-24T11:32:39.454Z,728
2016-05-24T11:33:39.394Z,716
2016-05-24T11:34:39.444Z,688
2016-05-24T11:35:39.415Z,692
2016-05-24T11:36:39.261Z,672
2016-05-24T11:37:39.498Z,708
2016-05-24T11:38:39.439Z,740
2016-05-24T11:39:39.129Z,776
2016-05-24T11:40:39.459Z,784
2016-05-24T11:41:39.290Z,812
2016-05-24T11:42:39.309Z,828
2016-05-24T11:43:39.452Z,804
2016-05-24T11:44:39.455Z,832
2016-05-24T11:45:39.582Z,904
2016-05-24T11:46:39.381Z,936
2016-05-24T11:47:39.509Z,976
2016-05-24T11:48:39.497Z,964
2016-05-24T11:49:39.359Z,948
2016-05-24T11:50:39.518Z,996
2016-05-24T11:51:39.519Z,1044
2016-05-24T11:52:39.367Z,1060
2016-05-24T11:53:39.526Z,1004
2016-05-24T11:54:39.372Z,984
2016-05-24T11:55:39.391Z,1020
2016-05-24T11:56:39.549Z,1116
2016-05-24T11:57:39.568Z,1284
2016-05-24T11:58:39.571Z,1396
2016-05-24T11:59:39.573Z,1324
2016-05-24T12:00:39.529Z,1224
2016-05-24T12:01:39.594Z,1200
2016-05-24T12:02:39.471Z,1244
2016-05-24T12:03:39.599Z,1348
2016-05-24T12:04:39.618Z,1528
2016-05-24T12:05:39.621Z,1764
2016-05-24T12:06:39.623Z,1848
2016-05-24T12:07:39.626Z,1680
2016-05-24T12:08:39.645Z,1452
2016-05-24T12:09:39.585Z,1332
2016-05-24T12:10:39.650Z,1336
2016-05-24T12:11:39.668Z,1436
2016-05-24T12:12:39.498Z,1508
2016-05-24T12:13:39.673Z,1528
2016-05-24T12:14:39.676Z,1536
2016-05-24T12:15:39.569Z,1480
2016-05-24T12:16:39.744Z,1228
2016-05-24T12:17:39.528Z,1064
2016-05-24T12:18:39.734Z,988
2016-05-24T12:19:39.767Z,988
2016-05-24T12:20:39.722Z,1088
2016-05-24T12:21:39.820Z,1212
2016-05-24T12:22:39.728Z,1200
2016-05-24T12:23:39.856Z,1108
2016-05-24T12:24:39.624Z,1060
2016-05-24T12:25:39.862Z,1032
2016-05-24T12:26:39.755Z,1088
2016-05-24T12:27:39.773Z,1164
2016-05-24T12:28:39.838Z,1156
2016-05-24T12:29:39.841Z,1136
2016-05-24T12:30:40.204Z,1068
2016-05-24T12:31:39.707Z,972
2016-05-24T12:32:39.818Z,968
2016-05-24T12:33:39.649Z,1020
2016-05-24T12:34:39.840Z,1092
2016-05-24T12:35:39.827Z,1108
2016-05-24T12:36:39.891Z,1136
2016-05-24T12:37:39.848Z,1056
2016-05-24T12:38:39.850Z,912
2016-05-24T12:39:39.915Z,800
2016-05-24T12:40:39.715Z,760
2016-05-24T12:41:39.873Z,784
2016-05-24T12:42:39.720Z,792
2016-05-24T12:43:39.738Z,808
2016-05-24T12:44:39.725Z,820
2016-05-24T12:45:40.166Z,852
2016-05-24T12:46:39.903Z,860
2016-05-24T12:47:39.920Z,840
2016-05-24T12:48:39.923Z,828
2016-05-24T12:49:39.926Z,812
2016-05-24T12:50:39.929Z,800
2016-05-24T12:51:39.776Z,816
2016-05-24T12:52:39.950Z,836
2016-05-24T12:53:39.797Z,812
2016-05-24T12:54:39.972Z,812
2016-05-24T12:55:39.974Z,864
2016-05-24T12:56:40.070Z,948
2016-05-24T12:57:39.979Z,1056
2016-05-24T12:58:39.919Z,1120
2016-05-24T12:59:39.844Z,1024
2016-05-24T13:00:40.315Z,940
2016-05-24T13:01:40.005Z,956
2016-05-24T13:02:39.946Z,984
2016-05-24T13:03:40.026Z,992
2016-05-24T13:04:40.029Z,1012
2016-05-24T13:05:40.032Z,1028
2016-05-24T13:06:40.035Z,1140
2016-05-24T13:07:40.037Z,1220
2016-05-24T13:08:39.899Z,1212
2016-05-24T13:09:39.761Z,1248
2016-05-24T13:10:40.187Z,1232
2016-05-24T13:11:40.079Z,1124
2016-05-24T13:12:40.004Z,1056
2016-05-24T13:13:39.960Z,1004
2016-05-24T13:14:40.103Z,892
2016-05-24T13:15:40.746Z,812
2016-05-24T13:16:39.967Z,788
2016-05-24T13:17:40.111Z,848
2016-05-24T13:18:39.973Z,980
2016-05-24T13:19:40.164Z,1060
2016-05-24T13:20:39.978Z,1080
2016-05-24T13:21:40.216Z,1064
2016-05-24T13:22:40.155Z,1092
2016-05-24T13:23:40.283Z,1088
2016-05-24T13:24:40.177Z,1108
2016-05-24T13:25:40.163Z,1124
2016-05-24T13:26:40.183Z,1032
2016-05-24T13:27:40.264Z,992
2016-05-24T13:28:39.906Z,952
2016-05-24T13:29:40.269Z,864
2016-05-24T13:30:40.224Z,784
2016-05-24T13:31:40.055Z,748
2016-05-24T13:32:40.230Z,724
2016-05-24T13:33:39.904Z,740
2016-05-24T13:34:39.954Z,744
2016-05-24T13:35:40.238Z,768
2016-05-24T13:36:40.240Z,832
2016-05-24T13:37:40.259Z,972
2016-05-24T13:38:40.262Z,1060
2016-05-24T13:39:40.170Z,1180
2016-05-24T13:40:40.329Z,1264
2016-05-24T13:41:40.285Z,1232
2016-05-24T13:42:40.287Z,1152
2016-05-24T13:43:40.275Z,1184
2016-05-24T13:44:40.386Z,1248
2016-05-24T13:45:40.108Z,1284
2016-05-24T13:46:40.252Z,1292
2016-05-24T13:47:40.317Z,1260
2016-05-24T13:48:40.334Z,1236
2016-05-24T13:49:40.212Z,1172
2016-05-24T13:50:40.215Z,1152
2016-05-24T13:51:40.342Z,1224
2016-05-24T13:52:40.392Z,1276
2016-05-24T13:53:40.442Z,1300
2016-05-24T13:54:40.211Z,1272
2016-05-24T13:55:40.635Z,1260
2016-05-24T13:56:40.435Z,1288
2016-05-24T13:57:40.405Z,1296
2016-05-24T13:58:39.924Z,1304
2016-05-24T13:59:40.911Z,1216